createdAt,value
2022-12-01T00:03:25.608Z,21.77
2022-12-01T00:08:28.759Z,35.15
2022-12-01T00:13:30.786Z,22.87
2022-12-01T00:18:32.805Z,21.37
2022-12-01T00:23:34.818Z,23.75
2022-12-01T00:28:36.814Z,20.02
2022-12-01T00:33:39.703Z,18.63
2022-12-01T00:38:42.052Z,18.55
2022-12-01T00:43:44.045Z,19.40
2022-12-01T00:48:46.114Z,19.17
2022-12-01T00:53:48.116Z,14.95
2022-12-01T00:58:50.122Z,23.45
2022-12-01T01:03:52.125Z,18.20
2022-12-01T01:08:54.146Z,17.73
2022-12-01T01:13:56.175Z,19.60
2022-12-01T01:18:58.400Z,22.52
2022-12-01T01:24:00.462Z,18.70
2022-12-01T01:29:04.699Z,22.08
2022-12-01T01:34:06.745Z,20.52
2022-12-01T01:39:08.776Z,21.63
2022-12-01T01:44:48.329Z,18.67
2022-12-01T01:49:50.738Z,21.20
2022-12-01T01:54:55.702Z,21.20
2022-12-01T02:00:11.970Z,19.23
2022-12-01T02:05:20.333Z,17.92
2022-12-01T02:10:28.240Z,20.58
2022-12-01T02:16:08.834Z,19.77
2022-12-01T02:21:37.112Z,19.65
2022-12-01T02:26:49.118Z,16.80
2022-12-01T02:32:06.311Z,22.40
2022-12-01T02:37:29.458Z,21.70
2022-12-01T02:43:02.238Z,20.62
2022-12-01T02:48:11.151Z,20.73
2022-12-01T02:53:17.403Z,21.03
2022-12-01T02:58:20.499Z,23.65
2022-12-01T03:03:37.689Z,19.62
2022-12-01T03:08:56.503Z,20.60
2022-12-01T03:14:31.280Z,20.17
2022-12-01T03:19:43.691Z,20.10
2022-12-01T03:24:49.397Z,19.53
2022-12-01T03:29:55.782Z,20.37
2022-12-01T03:35:04.802Z,18.55
2022-12-01T03:40:12.156Z,21.33
2022-12-01T03:45:24.596Z,21.33
2022-12-01T03:50:40.895Z,21.23
2022-12-01T03:55:46.729Z,18.60
2022-12-01T04:00:53.217Z,18.03
2022-12-01T04:05:55.773Z,21.73
2022-12-01T04:10:57.770Z,19.15
2022-12-01T04:15:59.824Z,21.70
2022-12-01T04:21:01.827Z,22.45
2022-12-01T04:26:05.364Z,27.37
2022-12-01T04:31:07.456Z,36.43
2022-12-01T04:36:10.046Z,24.77
2022-12-01T04:41:13.141Z,22.65
2022-12-01T04:46:15.195Z,18.70
2022-12-01T04:51:17.869Z,24.00
2022-12-01T04:56:20.078Z,21.42
2022-12-01T05:01:22.186Z,22.77
2022-12-01T05:06:27.482Z,27.00
2022-12-01T05:11:30.941Z,25.85
2022-12-01T05:16:34.276Z,22.58
2022-12-01T05:21:36.365Z,21.37
2022-12-01T05:26:38.814Z,21.80
2022-12-01T05:31:42.459Z,23.05
2022-12-01T05:36:44.588Z,24.17
2022-12-01T05:41:46.617Z,23.57
2022-12-01T05:46:48.662Z,23.25
2022-12-01T05:51:50.649Z,24.35
2022-12-01T05:56:52.674Z,24.83
2022-12-01T06:01:54.744Z,26.27
2022-12-01T06:06:57.107Z,23.23
2022-12-01T06:11:59.133Z,24.47
2022-12-01T06:17:01.225Z,25.93
2022-12-01T06:22:04.059Z,28.00
2022-12-01T06:27:06.104Z,28.12
2022-12-01T06:32:08.205Z,33.37
2022-12-01T06:37:11.320Z,30.08
2022-12-01T06:42:13.321Z,29.12
2022-12-01T06:47:16.005Z,31.47
2022-12-01T06:52:18.041Z,36.45
2022-12-01T06:57:20.126Z,30.58
2022-12-01T07:02:22.834Z,30.47
2022-12-01T07:07:24.954Z,29.87
2022-12-01T07:12:31.092Z,27.30
2022-12-01T07:17:33.641Z,30.80
2022-12-01T07:22:36.174Z,26.90
2022-12-01T07:27:38.228Z,34.15
2022-12-01T07:32:40.319Z,27.87
2022-12-01T07:37:42.303Z,29.70
2022-12-01T07:42:44.287Z,28.10
2022-12-01T07:47:46.329Z,31.65
2022-12-01T07:52:51.595Z,28.47
2022-12-01T07:57:53.685Z,24.43
2022-12-01T08:02:55.734Z,27.15
2022-12-01T08:07:59.322Z,49.53
2022-12-01T08:13:01.400Z,25.33
2022-12-01T08:18:03.584Z,26.85
2022-12-01T08:23:05.594Z,30.70
2022-12-01T08:28:07.645Z,27.90
2022-12-01T08:33:09.632Z,31.62
2022-12-01T08:38:12.244Z,33.58
2022-12-01T08:43:34.746Z,25.00
2022-12-01T08:48:36.789Z,26.03
2022-12-01T08:53:45.275Z,23.42
2022-12-01T08:58:48.205Z,25.92
2022-12-01T09:04:05.491Z,24.97
2022-12-01T09:09:11.267Z,25.73
2022-12-01T09:14:15.312Z,29.37
2022-12-01T09:19:24.093Z,26.57
2022-12-01T09:24:27.635Z,29.75
2022-12-01T09:29:30.285Z,28.85
2022-12-01T09:34:32.295Z,25.90
2022-12-01T09:39:34.297Z,32.13
2022-12-01T09:44:55.857Z,26.45
2022-12-01T09:50:36.248Z,27.00
2022-12-01T09:55:39.414Z,28.87
2022-12-01T10:00:43.662Z,25.02
2022-12-01T10:06:26.153Z,22.33
2022-12-01T10:11:39.562Z,24.03
2022-12-01T10:17:05.639Z,23.83
2022-12-01T10:22:26.056Z,22.37
2022-12-01T10:28:19.142Z,23.33
2022-12-01T10:33:25.450Z,22.23
2022-12-01T10:38:36.857Z,20.15
2022-12-01T10:43:42.314Z,17.00
2022-12-01T10:48:56.661Z,18.13
2022-12-01T10:54:06.962Z,16.17
2022-12-01T10:59:40.744Z,18.67
2022-12-01T11:04:50.617Z,18.50
2022-12-01T11:10:06.132Z,17.27
2022-12-01T11:15:17.897Z,20.55
2022-12-01T11:20:35.517Z,16.93
2022-12-01T11:25:38.165Z,15.73
2022-12-01T11:30:40.398Z,15.02
2022-12-01T11:35:48.060Z,14.57
2022-12-01T11:40:55.567Z,14.40
2022-12-01T11:46:02.647Z,17.17
2022-12-01T11:51:16.171Z,17.30
2022-12-01T11:56:28.018Z,16.23
2022-12-01T12:01:55.213Z,13.60
2022-12-01T12:07:10.801Z,16.00
2022-12-01T12:12:24.562Z,15.10
2022-12-01T12:17:26.570Z,15.03
2022-12-01T12:22:34.236Z,16.92
2022-12-01T12:27:46.632Z,14.23
2022-12-01T12:33:13.773Z,17.00
2022-12-01T12:38:40.526Z,14.50
2022-12-01T12:44:04.985Z,13.88
2022-12-01T12:49:36.338Z,15.40
2022-12-01T12:54:57.210Z,15.88
2022-12-01T13:00:21.479Z,14.40
2022-12-01T13:05:27.120Z,15.17
2022-12-01T13:10:31.842Z,16.07
2022-12-01T13:15:36.532Z,13.60
2022-12-01T13:20:38.993Z,12.32
2022-12-01T13:25:42.390Z,19.40
2022-12-01T13:30:58.362Z,13.10
2022-12-01T13:36:38.143Z,16.87
2022-12-01T13:41:35.099Z,15.27
2022-12-01T13:46:37.134Z,12.93
2022-12-01T13:52:17.875Z,13.88
2022-12-01T13:57:27.115Z,15.77
2022-12-01T14:02:34.759Z,12.57
2022-12-01T14:07:38.852Z,13.55
2022-12-01T14:12:45.724Z,15.70
2022-12-01T14:17:57.896Z,13.57
2022-12-01T14:23:18.688Z,14.77
2022-12-01T14:28:55.742Z,17.30
2022-12-01T14:34:12.107Z,16.77
2022-12-01T14:39:24.593Z,15.90
2022-12-01T14:44:44.802Z,19.05
2022-12-01T14:49:46.777Z,19.47
2022-12-01T14:54:49.953Z,17.73
2022-12-01T15:00:13.952Z,19.08
2022-12-01T15:05:18.704Z,17.02
2022-12-01T15:10:34.611Z,16.90
2022-12-01T15:15:37.729Z,17.50
2022-12-01T15:20:46.356Z,17.42
2022-12-01T15:25:49.783Z,17.83
2022-12-01T15:30:54.945Z,18.70
2022-12-01T15:35:58.827Z,21.08
2022-12-01T15:46:30.952Z,15.97
2022-12-01T15:51:32.995Z,19.10
2022-12-01T15:56:40.921Z,19.45
2022-12-01T16:01:44.307Z,20.30
2022-12-01T16:06:58.116Z,16.48
2022-12-01T16:12:27.397Z,18.58
2022-12-01T16:17:45.260Z,18.53
2022-12-01T16:22:51.254Z,21.75
2022-12-01T16:27:54.845Z,17.00
2022-12-01T16:33:06.105Z,20.03
2022-12-01T16:38:20.818Z,22.17
2022-12-01T16:43:25.272Z,22.37
2022-12-01T16:48:27.380Z,21.95
2022-12-01T16:53:29.410Z,20.90
2022-12-01T16:58:32.014Z,21.30
2022-12-01T17:03:34.139Z,26.17
2022-12-01T17:08:36.315Z,22.73
2022-12-01T17:13:38.496Z,22.35
2022-12-01T17:18:40.671Z,27.15
2022-12-01T17:23:42.707Z,23.83
2022-12-01T17:28:44.792Z,22.50
2022-12-01T17:33:46.891Z,24.23
2022-12-01T17:38:49.677Z,24.30
2022-12-01T17:43:52.011Z,23.75
2022-12-01T17:48:54.041Z,25.55
2022-12-01T17:53:56.055Z,25.93
2022-12-01T17:58:58.070Z,28.93
2022-12-01T18:04:00.162Z,26.15
2022-12-01T18:09:02.670Z,28.80
2022-12-01T18:14:04.823Z,25.80
2022-12-01T18:19:06.898Z,29.17
2022-12-01T18:24:10.240Z,29.02
2022-12-01T18:29:18.649Z,24.97
2022-12-01T18:34:20.830Z,30.10
2022-12-01T18:39:22.901Z,30.37
2022-12-01T18:44:25.015Z,29.17
2022-12-01T18:49:27.103Z,28.17
2022-12-01T18:54:29.422Z,31.70
2022-12-01T18:59:31.676Z,29.52
2022-12-01T19:04:33.728Z,31.43
2022-12-01T19:09:35.839Z,32.03
2022-12-01T19:14:37.921Z,30.08
2022-12-01T19:19:39.966Z,31.33
2022-12-01T19:24:44.881Z,30.17
2022-12-01T19:29:52.252Z,31.20
2022-12-01T19:34:54.662Z,32.17
2022-12-01T19:39:56.715Z,36.30
2022-12-01T19:44:59.046Z,37.70
2022-12-01T19:50:01.618Z,35.65
2022-12-01T19:55:05.850Z,34.43
2022-12-01T20:00:08.411Z,37.50
2022-12-01T20:05:10.459Z,34.88
2022-12-01T20:10:13.217Z,35.47
2022-12-01T20:15:16.311Z,39.65
2022-12-01T20:20:18.547Z,40.35
2022-12-01T20:25:20.550Z,38.80
2022-12-01T20:30:22.617Z,42.27
2022-12-01T20:35:24.692Z,41.35
2022-12-01T20:40:26.783Z,36.88
2022-12-01T20:45:28.869Z,41.70
